Honolulu, HI

9:52 AM HST on January 27, 2015 (GMT -1000)
Pacific Heights | Change Station
CLOSE
Current Station
Personal Weather Station
Location: Honolulu, HI
Elevation: 528 ft
Nearby Weather Stations

Elev 528 ft 21.33 °N, 157.84 °W | Updated 25 seconds ago

Scattered Clouds
Scattered Clouds
72.9 °F
Feels Like 75 °F
N
10.1
Wind Variable Wind from ESE
Gusts 11.0 mph

Today
High -- | Low -- °F
--% Chance of Precip.
Yesterday
High -- | Low -- °F
Precip. -- in
7:10 AM 6:18 PM
First Quarter, 57% visible
Pressure 29.99 in
Visibility 10.0 miles
Clouds Few 2800 ft
Scattered Clouds 3800 ft
Scattered Clouds 4800 ft
Heat Index 75 °F
Dew Point 62 °F
Humidity 70%
Rainfall 0.00 in
Snow Depth Not available.
UV 1 out of 12
Pollen Not available.
Air Quality Not available.
Flu Activity Not available.
METAR PHNL 271853Z 07011G15KT 10SM FEW028 SCT038 SCT048 24/16 A2999 RMK AO2 SLP154 VCSH E T02440161

More Conditions Fewer Conditions

Pressure 29.99 in
Visibility 10.0 miles
Clouds Few 2800 ft
Scattered Clouds 3800 ft
Scattered Clouds 4800 ft
Heat Index 75 °F
Dew Point 62 °F
Humidity 70%
Rainfall 0.00 in
Snow Depth Not available.
UV 1 out of 12
Pollen Not available.
Air Quality Not available.
Flu Activity Not available.
METAR PHNL 271853Z 07011G15KT 10SM FEW028 SCT038 SCT048 24/16 A2999 RMK AO2 SLP154 VCSH E T02440161

More Conditions Fewer Conditions

10-Day Weather Forecast

Almanac

Astronomy

Jan. 27, 2015 Rise Set
Actual Time
Civil Twilight
Nautical Twilight
Astronomical Twilight
Moon
Length of Visible Light
Length of Day
Tomorrow will be .
, % of the Moon is Illuminated

Today's Extremes

State Highs State Lows

Community

WunderPhotos

Upload Photos

1,790,837 photos uploaded!

WunderBlogs® & News

Nearby

Air Quality

  Air Quality AQ Index Pollutant
Not available.

Snow Depth

Station Depth Elevation

Earthquake Activity

City Distance Mag. Time & Date
Minimum magnitude displayed is 2.5.

Coastal Water Temperatures

Place Temperature

Nearby Weather Stations